Time;durP1;ratioP1;P1;durP2;ratioP2;P2;SDS_P1;SDS_P2;PMS_P1;PMS_P2;Temp;Humidity;BMP_temperature;BMP_pressure;BME280_temperature;BME280_humidity;BME280_pressure;Samples;Min_cycle;Max_cycle;Signal;HPM_P1;HPM_P2
2023/05/22 00:02:17;;;;;;;14.35;1.75;;;18.20;72.10;;;;;;5068821;28;20033;-76
2023/05/22 00:04:43;;;;;;;3.58;1.58;;;18.10;73.40;;;;;;5068631;28;20044;-76
2023/05/22 00:07:08;;;;;;;6.95;1.40;;;17.90;75.00;;;;;;5068545;28;20037;-75
2023/05/22 00:09:34;;;;;;;6.78;1.40;;;17.80;75.80;;;;;;5068700;28;20025;-75
2023/05/22 00:12:00;;;;;;;3.35;1.40;;;17.70;76.60;;;;;;5068664;28;20111;-75
2023/05/22 00:14:25;;;;;;;4.45;1.70;;;17.60;78.10;;;;;;5068947;28;20017;-76
2023/05/22 00:16:52;;;;;;;6.95;1.67;;;17.50;78.20;;;;;;5068661;28;20036;-77
2023/05/22 00:19:21;;;;;;;3.80;1.40;;;17.40;78.40;;;;;;5068793;28;20035;-76
2023/05/22 00:21:47;;;;;;;5.35;1.20;;;17.30;79.40;;;;;;5068803;28;20063;-75
2023/05/22 00:24:13;;;;;;;4.10;1.33;;;17.20;80.30;;;;;;5068702;28;20048;-77
2023/05/22 00:26:38;;;;;;;2.92;1.20;;;17.20;81.00;;;;;;5068738;28;20041;-77
2023/05/22 00:29:07;;;;;;;3.38;1.45;;;17.10;81.80;;;;;;5068557;28;20025;-76
2023/05/22 00:31:32;;;;;;;6.10;1.58;;;17.00;82.80;;;;;;5068622;28;20060;-77
2023/05/22 00:33:58;;;;;;;4.68;1.63;;;17.00;84.00;;;;;;5068682;28;20469;-76
2023/05/22 00:36:24;;;;;;;;;;;16.90;84.30;;;;;;5069001;28;20077;-76
2023/05/22 00:38:49;;;;;;;4.18;1.70;;;16.90;85.80;;;;;;5068466;28;20379;-78
2023/05/22 00:41:15;;;;;;;7.82;1.63;;;16.80;85.10;;;;;;5068617;28;20032;-76
2023/05/22 00:43:41;;;;;;;4.18;1.70;;;16.70;86.50;;;;;;5068210;28;20070;-75
2023/05/22 00:46:07;;;;;;;2.75;1.45;;;16.60;88.50;;;;;;5068230;28;20029;-75
2023/05/22 00:48:32;;;;;;;6.82;1.58;;;16.60;89.30;;;;;;5068529;28;20481;-76
2023/05/22 00:50:59;;;;;;;7.00;1.60;;;16.60;90.60;;;;;;5068287;28;20111;-77
2023/05/22 00:53:27;;;;;;;6.32;1.70;;;16.50;92.30;;;;;;5068461;28;20090;-76
2023/05/22 00:55:53;;;;;;;4.00;1.55;;;16.40;91.30;;;;;;5068023;28;20080;-76
2023/05/22 00:58:20;;;;;;;4.65;1.73;;;16.50;90.50;;;;;;5068054;28;20037;-76
2023/05/22 01:00:46;;;;;;;3.42;1.73;;;16.50;89.40;;;;;;5068224;28;20493;-76
2023/05/22 01:03:13;;;;;;;8.45;1.50;;;16.60;88.40;;;;;;5068278;28;20116;-77
2023/05/22 01:05:40;;;;;;;3.63;1.65;;;16.60;90.20;;;;;;5067919;28;20032;-75
2023/05/22 01:08:06;;;;;;;9.50;1.70;;;16.60;90.50;;;;;;5068335;28;20032;-75
2023/05/22 01:10:34;;;;;;;5.32;1.55;;;16.50;91.40;;;;;;5068188;28;20025;-75
2023/05/22 01:13:24;;;;;;;10.52;1.70;;;16.40;92.40;;;;;;5066870;28;20036;-74
2023/05/22 01:16:09;;;;;;;3.10;1.63;;;16.30;93.00;;;;;;5067923;28;20043;-74
2023/05/22 01:19:15;;;;;;;4.88;1.60;;;16.20;93.30;;;;;;5069305;28;20432;-78
2023/05/22 01:21:57;;;;;;;6.70;2.30;;;16.10;95.30;;;;;;5071101;28;20036;-77
2023/05/22 01:24:32;;;;;;;6.07;1.63;;;15.90;96.60;;;;;;5071984;28;20124;-77
2023/05/22 01:27:06;;;;;;;10.63;1.90;;;15.80;98.00;;;;;;5070268;28;20206;-77
2023/05/22 01:29:53;;;;;;;4.63;1.63;;;15.70;98.50;;;;;;5070466;28;20052;-76
2023/05/22 01:32:22;;;;;;;12.25;1.75;;;15.70;99.40;;;;;;5071941;28;20033;-77
2023/05/22 01:34:52;;;;;;;6.03;1.88;;;15.60;99.90;;;;;;5070144;28;20043;-77
2023/05/22 01:37:21;;;;;;;5.32;2.33;;;15.60;99.90;;;;;;5071201;28;20115;-79
2023/05/22 01:39:47;;;;;;;7.18;1.85;;;15.60;99.90;;;;;;5070524;28;20041;-78
2023/05/22 01:42:14;;;;;;;3.88;1.80;;;15.60;99.90;;;;;;5071783;28;20078;-79
2023/05/22 01:44:40;;;;;;;8.73;2.15;;;15.60;98.70;;;;;;5071455;28;20035;-77
2023/05/22 01:47:07;;;;;;;;;;;15.60;99.90;;;;;;5071942;28;20028;-77
2023/05/22 01:49:35;;;;;;;7.43;2.22;;;15.60;98.20;;;;;;5070525;28;19904;-78
2023/05/22 01:52:08;;;;;;;15.05;2.10;;;15.70;97.20;;;;;;5071613;28;20560;-79
2023/05/22 01:54:57;;;;;;;7.75;1.45;;;15.70;95.60;;;;;;5071633;28;20043;-79
2023/05/22 01:57:45;;;;;;;5.88;1.90;;;15.80;95.40;;;;;;5069881;28;20052;-78
2023/05/22 02:00:15;;;;;;;4.50;1.52;;;15.90;94.40;;;;;;5071395;28;20021;-76
2023/05/22 02:02:45;;;;;;;5.68;2.15;;;16.00;93.50;;;;;;5070979;28;20059;-79
2023/05/22 02:05:13;;;;;;;7.28;1.50;;;16.00;93.30;;;;;;5070004;28;20082;-80
2023/05/22 02:07:40;;;;;;;6.88;1.80;;;16.00;93.20;;;;;;5071111;28;20042;-77
2023/05/22 02:10:08;;;;;;;6.63;1.35;;;16.00;93.20;;;;;;5070926;28;20028;-78
2023/05/22 02:12:35;;;;;;;5.75;1.60;;;16.00;93.80;;;;;;5069213;28;20029;-78
2023/05/22 02:15:01;;;;;;;9.85;2.10;;;16.00;93.70;;;;;;5070132;28;20039;-77
2023/05/22 02:17:26;;;;;;;;;;;16.00;93.20;;;;;;5071559;28;20044;-77
2023/05/22 02:19:52;;;;;;;4.80;2.58;;;16.00;92.70;;;;;;5070674;28;20039;-77
2023/05/22 02:22:17;;;;;;;;;;;16.00;92.60;;;;;;5070049;28;20120;-78
2023/05/22 02:24:46;;;;;;;7.93;1.90;;;16.00;93.00;;;;;;5070527;28;19940;-78
2023/05/22 02:27:12;;;;;;;4.53;1.50;;;16.00;92.90;;;;;;5071048;28;20091;-78
2023/05/22 02:29:38;;;;;;;;;;;16.00;92.90;;;;;;5070659;28;20147;-77
2023/05/22 02:32:04;;;;;;;4.90;1.88;;;15.90;93.50;;;;;;5070812;28;19914;-78
2023/05/22 02:34:30;;;;;;;2.83;1.65;;;15.80;94.20;;;;;;5070983;28;20078;-77
2023/05/22 02:37:02;;;;;;;;;;;15.80;94.30;;;;;;5069763;28;20040;-77
2023/05/22 02:39:28;;;;;;;4.57;1.38;;;15.70;93.80;;;;;;5069401;28;19924;-77
2023/05/22 02:41:54;;;;;;;7.88;2.00;;;15.70;93.70;;;;;;5070933;28;20020;-77
2023/05/22 02:44:19;;;;;;;;;;;15.70;94.60;;;;;;5071138;28;20118;-78
2023/05/22 02:46:46;;;;;;;7.18;1.90;;;15.70;94.40;;;;;;5070494;28;19904;-78
2023/05/22 02:49:12;;;;;;;4.22;1.48;;;15.70;94.70;;;;;;5069792;28;20028;-78
2023/05/22 02:51:38;;;;;;;7.20;1.90;;;15.70;94.00;;;;;;5070452;28;20791;-78
2023/05/22 02:54:03;;;;;;;;;;;15.70;92.60;;;;;;5070963;28;20028;-77
2023/05/22 02:56:29;;;;;;;6.00;1.70;;;15.80;93.40;;;;;;5070057;28;19920;-77
2023/05/22 02:58:55;;;;;;;;;;;15.80;91.80;;;;;;5070741;28;20037;-78
2023/05/22 03:01:21;;;;;;;6.97;3.07;;;15.90;92.30;;;;;;5070186;28;20373;-78
2023/05/22 03:03:47;;;;;;;;;;;15.80;92.90;;;;;;5070720;28;20304;-77
2023/05/22 03:06:14;;;;;;;4.85;1.55;;;15.80;94.60;;;;;;5069971;28;20331;-78
2023/05/22 03:08:42;;;;;;;8.15;1.98;;;15.70;93.80;;;;;;5069961;28;20021;-78
2023/05/22 03:11:08;;;;;;;7.30;1.55;;;15.70;95.60;;;;;;5068910;28;20107;-77
2023/05/22 03:13:35;;;;;;;14.93;2.03;;;15.60;96.10;;;;;;5070124;28;20683;-77
2023/05/22 03:16:01;;;;;;;7.18;2.20;;;15.60;95.70;;;;;;5069830;28;20036;-78
2023/05/22 03:18:26;;;;;;;;;;;15.50;97.00;;;;;;5070448;28;20027;-78
2023/05/22 03:20:52;;;;;;;5.00;1.92;;;15.50;96.50;;;;;;5069915;28;20372;-79
2023/05/22 03:23:19;;;;;;;;;;;15.50;97.10;;;;;;5070303;28;20032;-77
2023/05/22 03:25:46;;;;;;;5.47;1.88;;;15.50;96.80;;;;;;5069752;28;19940;-78
2023/05/22 03:28:12;;;;;;;3.65;1.88;;;15.50;97.30;;;;;;5068383;28;20028;-78
2023/05/22 03:30:37;;;;;;;;;;;15.50;98.20;;;;;;5070111;28;20096;-78
2023/05/22 03:33:03;;;;;;;6.50;2.08;;;15.50;98.60;;;;;;5069360;28;20455;-77
2023/05/22 03:35:29;;;;;;;;;;;15.50;98.20;;;;;;5069899;28;20039;-77
2023/05/22 03:37:54;;;;;;;11.38;1.80;;;15.60;97.50;;;;;;5068133;28;19955;-77
2023/05/22 03:40:20;;;;;;;6.28;1.33;;;15.60;98.90;;;;;;5068606;28;20039;-76
2023/05/22 03:42:48;;;;;;;3.80;1.70;;;15.60;99.90;;;;;;5069303;28;20106;-79
2023/05/22 03:45:13;;;;;;;9.18;1.52;;;15.50;99.90;;;;;;5069494;28;20024;-79
2023/05/22 03:47:39;;;;;;;;;;;15.50;99.90;;;;;;5068205;28;20082;-78
2023/05/22 03:50:05;;;;;;;11.50;2.00;;;15.50;99.90;;;;;;5069259;28;20506;-77
2023/05/22 03:52:31;;;;;;;5.72;1.83;;;15.60;99.90;;;;;;5069297;28;20493;-77
2023/05/22 03:54:57;;;;;;;5.00;2.03;;;15.50;99.90;;;;;;5067785;28;20036;-78
2023/05/22 03:57:22;;;;;;;;;;;15.60;99.90;;;;;;5069042;28;20056;-78
2023/05/22 03:59:48;;;;;;;5.55;1.70;;;15.60;99.90;;;;;;5068882;28;19969;-77
2023/05/22 04:02:15;;;;;;;11.13;2.45;;;15.70;99.90;;;;;;5069237;28;20085;-77
2023/05/22 04:04:41;;;;;;;4.70;1.52;;;15.80;99.90;;;;;;5068774;28;20111;-78
2023/05/22 04:07:07;;;;;;;9.82;2.75;;;15.90;99.90;;;;;;5068867;28;20119;-78
2023/05/22 04:09:34;;;;;;;4.57;2.08;;;16.00;99.90;;;;;;5068559;28;20029;-78
2023/05/22 04:12:00;;;;;;;7.47;2.08;;;16.20;99.90;;;;;;5068773;28;20077;-78
2023/05/22 04:14:27;;;;;;;12.18;2.50;;;16.40;99.90;;;;;;5068955;28;20020;-78
2023/05/22 04:16:53;;;;;;;5.93;1.58;;;16.50;99.90;;;;;;5068669;28;20068;-78
2023/05/22 04:19:19;;;;;;;5.53;2.20;;;16.70;99.90;;;;;;5068940;28;20131;-77
2023/05/22 04:21:46;;;;;;;9.10;2.47;;;16.90;99.90;;;;;;5068895;28;20043;-78
2023/05/22 04:24:12;;;;;;;7.25;1.77;;;17.10;99.90;;;;;;5068515;28;20540;-78
2023/05/22 04:26:38;;;;;;;20.55;2.63;;;17.40;96.80;;;;;;5068663;28;20151;-78
2023/05/22 04:29:05;;;;;;;11.32;2.55;;;17.60;96.10;;;;;;5068561;28;20028;-79
2023/05/22 04:31:31;;;;;;;10.75;1.70;;;17.70;96.60;;;;;;5068640;28;20035;-78
2023/05/22 04:33:58;;;;;;;8.32;1.95;;;17.80;98.40;;;;;;5068458;28;20029;-79
2023/05/22 04:36:28;;;;;;;7.60;2.13;;;17.90;99.90;;;;;;5068505;28;20025;-80
2023/05/22 04:38:54;;;;;;;10.15;2.00;;;17.90;99.90;;;;;;5068297;28;20032;-78
2023/05/22 04:41:21;;;;;;;9.07;1.88;;;18.10;99.70;;;;;;5068339;28;20028;-78
2023/05/22 04:43:47;;;;;;;8.75;2.17;;;18.10;99.70;;;;;;5068452;28;20017;-77
2023/05/22 04:46:16;;;;;;;7.47;1.67;;;18.20;99.90;;;;;;5068317;28;20507;-77
2023/05/22 04:48:42;;;;;;;8.13;1.75;;;18.30;98.80;;;;;;5068098;28;20610;-78
2023/05/22 04:51:08;;;;;;;6.18;2.00;;;18.40;99.00;;;;;;5068101;28;20028;-78
2023/05/22 04:53:34;;;;;;;5.18;1.73;;;18.50;98.50;;;;;;5066852;28;20029;-79
2023/05/22 04:56:00;;;;;;;10.60;1.60;;;18.60;99.10;;;;;;5066875;28;20059;-77
2023/05/22 04:58:26;;;;;;;5.72;1.60;;;18.80;99.10;;;;;;5068299;28;20063;-77
2023/05/22 05:00:56;;;;;;;3.50;1.55;;;18.90;97.40;;;;;;5067979;28;20031;-78
2023/05/22 05:03:24;;;;;;;8.00;1.80;;;19.10;98.00;;;;;;5068194;28;20503;-78
2023/05/22 05:05:50;;;;;;;7.97;2.05;;;19.20;96.90;;;;;;5067810;28;20020;-78
2023/05/22 05:08:16;;;;;;;7.63;1.58;;;19.40;96.30;;;;;;5067932;28;20055;-79
2023/05/22 05:10:41;;;;;;;4.40;2.10;;;19.60;94.90;;;;;;5068056;28;20386;-78
2023/05/22 05:13:07;;;;;;;3.63;1.73;;;19.90;93.60;;;;;;5067937;28;20512;-79
2023/05/22 05:15:33;;;;;;;4.15;2.20;;;20.20;92.30;;;;;;5068430;28;20013;-79
2023/05/22 05:17:58;;;;;;;8.13;1.80;;;20.40;90.60;;;;;;5067719;28;20519;-77
2023/05/22 05:20:24;;;;;;;4.78;2.80;;;20.60;89.10;;;;;;5068124;28;20500;-78
2023/05/22 05:22:50;;;;;;;16.27;2.50;;;20.80;83.40;;;;;;5068229;28;20477;-78
2023/05/22 05:25:16;;;;;;;14.20;2.53;;;21.00;77.80;;;;;;5067863;28;20025;-78
2023/05/22 05:27:41;;;;;;;7.78;1.75;;;21.20;75.40;;;;;;5067916;28;20485;-77
2023/05/22 05:30:07;;;;;;;6.22;1.92;;;21.50;73.70;;;;;;5067641;28;20473;-78
2023/05/22 05:32:33;;;;;;;4.05;1.85;;;21.70;72.60;;;;;;5068105;28;20067;-78
2023/05/22 05:34:59;;;;;;;9.90;2.08;;;22.00;70.90;;;;;;5066190;28;20090;-79
2023/05/22 05:37:24;;;;;;;5.25;2.03;;;22.30;68.70;;;;;;5067597;28;20082;-78
2023/05/22 05:39:50;;;;;;;5.22;2.10;;;22.60;66.90;;;;;;5067804;28;20036;-79
2023/05/22 05:42:18;;;;;;;5.60;2.17;;;22.90;64.60;;;;;;5066449;28;20438;-77
2023/05/22 05:44:44;;;;;;;12.10;2.90;;;23.20;62.70;;;;;;5066093;28;20052;-75
2023/05/22 05:47:10;;;;;;;26.05;3.95;;;23.90;60.90;;;;;;5067592;28;20068;-76
2023/05/22 05:49:36;;;;;;;9.27;4.13;;;24.50;58.50;;;;;;5067692;28;20460;-78
2023/05/22 05:52:01;;;;;;;7.38;4.45;;;25.30;56.40;;;;;;5067713;28;20020;-79
2023/05/22 05:54:27;;;;;;;9.82;2.83;;;26.20;54.60;;;;;;5067735;28;20660;-79
2023/05/22 05:56:53;;;;;;;12.15;3.00;;;26.30;53.90;;;;;;5067246;28;20045;-78
2023/05/22 05:59:19;;;;;;;7.95;2.70;;;26.00;53.50;;;;;;5066059;28;20501;-75
2023/05/22 06:01:45;;;;;;;9.32;2.03;;;25.30;55.40;;;;;;5068085;28;20037;-76
2023/05/22 06:04:12;;;;;;;3.92;1.95;;;24.70;56.00;;;;;;5068966;28;20032;-77
2023/05/22 06:06:38;;;;;;;6.25;2.13;;;24.20;57.40;;;;;;5071072;28;20098;-76
2023/05/22 06:09:05;;;;;;;11.45;2.08;;;23.60;58.60;;;;;;5071517;28;20473;-77
2023/05/22 06:11:31;;;;;;;21.60;3.13;;;23.20;60.50;;;;;;5070778;28;20497;-76
2023/05/22 06:13:58;;;;;;;5.78;1.95;;;22.90;62.90;;;;;;5070016;28;20031;-77
2023/05/22 06:16:25;;;;;;;7.93;2.25;;;22.60;64.40;;;;;;5069672;28;20472;-77
2023/05/22 06:18:51;;;;;;;7.60;1.92;;;22.30;66.40;;;;;;5070512;28;20470;-76
2023/05/22 06:21:19;;;;;;;7.10;2.72;;;22.40;68.40;;;;;;5069618;28;20409;-76
2023/05/22 06:23:46;;;;;;;9.07;2.45;;;22.60;68.00;;;;;;5071081;28;20029;-77
2023/05/22 06:26:12;;;;;;;8.00;2.53;;;22.70;66.90;;;;;;5070166;28;20025;-76
2023/05/22 06:28:38;;;;;;;19.70;2.00;;;22.70;63.00;;;;;;5069202;28;20124;-76
2023/05/22 06:31:04;;;;;;;4.68;2.42;;;23.10;63.60;;;;;;5069408;28;20066;-78
2023/05/22 06:33:30;;;;;;;5.35;2.50;;;24.50;59.20;;;;;;5070794;28;20021;-77
2023/05/22 06:35:57;;;;;;;7.57;2.17;;;26.00;56.80;;;;;;5070850;28;20040;-77
2023/05/22 06:38:22;;;;;;;27.05;3.13;;;27.20;53.70;;;;;;5070654;28;20039;-76
2023/05/22 06:40:48;;;;;;;8.20;2.30;;;28.10;49.40;;;;;;5070271;28;20028;-77
2023/05/22 06:43:14;;;;;;;7.07;2.72;;;28.60;47.90;;;;;;5069174;28;20047;-77
2023/05/22 06:45:39;;;;;;;5.05;2.50;;;29.80;44.90;;;;;;5069869;28;20539;-78
2023/05/22 06:48:05;;;;;;;9.13;2.05;;;30.10;42.40;;;;;;5070265;28;20516;-76
2023/05/22 06:50:31;;;;;;;7.15;2.25;;;30.70;41.20;;;;;;5070529;28;20033;-77
2023/05/22 06:52:56;;;;;;;10.15;3.10;;;30.50;40.20;;;;;;5068567;28;20028;-78
2023/05/22 06:55:22;;;;;;;7.50;1.92;;;30.80;41.30;;;;;;5068533;28;20028;-77
2023/05/22 06:57:48;;;;;;;4.55;1.83;;;31.10;40.20;;;;;;5070193;28;20035;-77
2023/05/22 07:00:15;;;;;;;6.40;2.08;;;30.70;39.20;;;;;;5070145;28;20029;-77
2023/05/22 07:02:40;;;;;;;7.13;2.67;;;30.70;41.40;;;;;;5070054;28;20103;-77
2023/05/22 07:05:06;;;;;;;17.50;3.55;;;30.70;38.70;;;;;;5069691;28;20107;-77
2023/05/22 07:07:32;;;;;;;13.25;3.20;;;30.80;40.50;;;;;;5069793;28;20059;-76
2023/05/22 07:09:58;;;;;;;9.20;2.00;;;30.90;40.90;;;;;;5069829;28;20481;-77
2023/05/22 07:12:25;;;;;;;7.80;2.35;;;31.10;37.30;;;;;;5069842;28;20059;-76
2023/05/22 07:14:53;;;;;;;7.18;2.30;;;31.30;37.70;;;;;;5069471;28;20052;-77
2023/05/22 07:17:20;;;;;;;7.40;2.58;;;31.30;37.90;;;;;;5069587;28;20036;-77
2023/05/22 07:19:47;;;;;;;9.70;2.53;;;31.70;38.00;;;;;;5069588;28;20489;-77
2023/05/22 07:22:12;;;;;;;11.48;1.90;;;31.50;39.10;;;;;;5069590;28;20433;-77
2023/05/22 07:24:38;;;;;;;15.02;2.40;;;31.40;38.40;;;;;;5068073;28;20151;-76
2023/05/22 07:27:04;;;;;;;3.45;2.08;;;31.50;38.10;;;;;;5069288;28;20086;-77
2023/05/22 07:29:30;;;;;;;6.07;2.25;;;31.30;38.10;;;;;;5068114;28;20136;-77
2023/05/22 07:31:56;;;;;;;9.32;2.40;;;31.50;38.10;;;;;;5069511;28;20447;-77
2023/05/22 07:34:22;;;;;;;5.30;1.73;;;30.90;38.30;;;;;;5069141;28;20081;-77
2023/05/22 07:36:48;;;;;;;3.72;1.80;;;30.70;38.10;;;;;;5069056;28;20853;-77
2023/05/22 07:39:13;;;;;;;8.93;2.13;;;30.50;38.30;;;;;;5069186;28;20032;-77
2023/05/22 07:41:40;;;;;;;3.90;2.10;;;30.60;40.30;;;;;;5069491;28;20101;-76
2023/05/22 07:44:05;;;;;;;12.73;2.75;;;30.40;39.80;;;;;;5069127;28;20416;-76
2023/05/22 07:46:34;;;;;;;7.22;2.00;;;30.40;38.60;;;;;;5069222;28;20049;-76
2023/05/22 07:48:59;;;;;;;4.57;1.90;;;30.90;38.70;;;;;;5068906;28;20116;-77
2023/05/22 07:51:25;;;;;;;5.85;1.88;;;30.90;39.50;;;;;;5069063;28;20099;-77
2023/05/22 07:53:52;;;;;;;5.90;2.33;;;31.30;38.90;;;;;;5068762;28;20775;-75
2023/05/22 07:56:17;;;;;;;10.65;2.03;;;31.40;39.10;;;;;;5068672;28;20080;-75
2023/05/22 07:58:46;;;;;;;5.75;2.20;;;31.70;38.30;;;;;;5068362;28;20106;-77
2023/05/22 08:01:12;;;;;;;8.80;1.85;;;31.60;37.80;;;;;;5068704;28;20020;-77
2023/05/22 08:03:37;;;;;;;10.38;2.25;;;31.80;38.70;;;;;;5068693;28;20032;-76
2023/05/22 08:06:03;;;;;;;10.63;2.25;;;32.10;38.20;;;;;;5068519;28;20036;-77
2023/05/22 08:08:29;;;;;;;12.07;2.60;;;32.20;37.60;;;;;;5068644;28;20024;-76
2023/05/22 08:10:54;;;;;;;4.65;1.92;;;31.80;38.10;;;;;;5068514;28;20068;-76
2023/05/22 08:13:21;;;;;;;9.30;2.00;;;31.80;38.20;;;;;;5068641;28;20056;-76
2023/05/22 08:15:47;;;;;;;5.38;2.40;;;31.50;37.50;;;;;;5066832;28;20689;-78
2023/05/22 08:18:12;;;;;;;6.68;1.65;;;31.80;38.70;;;;;;5068415;28;20031;-77
2023/05/22 08:20:38;;;;;;;5.18;2.28;;;32.00;38.20;;;;;;5068482;28;20032;-76
2023/05/22 08:23:04;;;;;;;18.60;2.67;;;31.80;38.80;;;;;;5068441;28;20052;-76
2023/05/22 08:25:29;;;;;;;9.27;2.25;;;31.30;37.80;;;;;;5068446;28;20102;-77
2023/05/22 08:27:55;;;;;;;7.80;2.60;;;31.30;39.00;;;;;;5068346;28;20098;-76
2023/05/22 08:30:21;;;;;;;2.63;1.75;;;31.40;38.80;;;;;;5067258;28;20040;-76
2023/05/22 08:32:46;;;;;;;7.03;2.30;;;31.80;39.40;;;;;;5068493;28;20028;-76
2023/05/22 08:35:13;;;;;;;11.13;2.38;;;31.80;38.40;;;;;;5068644;28;20036;-76
2023/05/22 08:37:39;;;;;;;9.50;2.05;;;32.00;39.00;;;;;;5068055;28;20032;-76
2023/05/22 08:40:09;;;;;;;7.53;2.45;;;32.00;38.30;;;;;;5068025;28;20105;-76
2023/05/22 08:42:35;;;;;;;3.88;2.17;;;32.20;38.70;;;;;;5068394;28;20028;-76
2023/05/22 08:45:01;;;;;;;7.88;3.08;;;32.40;38.00;;;;;;5067091;28;20099;-77
2023/05/22 08:47:28;;;;;;;5.43;2.30;;;32.10;36.60;;;;;;5068116;28;20025;-77
2023/05/22 08:49:56;;;;;;;7.32;2.13;;;31.70;37.30;;;;;;5068290;28;20405;-77
2023/05/22 08:52:31;;;;;;;8.95;1.80;;;31.90;38.70;;;;;;5066952;28;20028;-76
2023/05/22 08:54:57;;;;;;;7.90;2.10;;;32.00;38.20;;;;;;5068124;28;20047;-77
2023/05/22 08:57:24;;;;;;;4.55;1.92;;;32.30;38.80;;;;;;5068091;28;20048;-76
2023/05/22 08:59:50;;;;;;;7.35;2.83;;;32.40;37.00;;;;;;5068594;28;20112;-76
2023/05/22 09:02:16;;;;;;;7.63;1.98;;;32.60;37.80;;;;;;5068209;28;20556;-77
2023/05/22 09:04:42;;;;;;;9.02;2.28;;;32.80;38.40;;;;;;5068184;28;20029;-77
2023/05/22 09:07:08;;;;;;;9.40;2.10;;;32.90;37.10;;;;;;5068382;28;20104;-77
2023/05/22 09:09:37;;;;;;;5.30;2.35;;;32.90;36.70;;;;;;5068167;28;20075;-76
2023/05/22 09:12:07;;;;;;;7.15;2.28;;;32.80;37.00;;;;;;5068073;28;20029;-77
2023/05/22 09:14:43;;;;;;;7.18;2.13;;;32.50;38.00;;;;;;5068234;28;20111;-77
2023/05/22 09:17:13;;;;;;;5.80;2.05;;;31.90;38.10;;;;;;5066689;28;20036;-77
2023/05/22 09:19:43;;;;;;;5.15;2.30;;;32.00;39.20;;;;;;5066744;28;20193;-75
2023/05/22 09:22:09;;;;;;;5.95;1.80;;;32.60;40.10;;;;;;5068101;28;20024;-78
2023/05/22 09:24:41;;;;;;;8.65;2.10;;;33.20;38.50;;;;;;5067905;28;20025;-76
2023/05/22 09:27:07;;;;;;;9.88;2.75;;;33.40;37.00;;;;;;5067971;28;20035;-76
2023/05/22 09:29:54;;;;;;;7.75;2.50;;;33.40;36.50;;;;;;5067902;28;20023;-78
2023/05/22 09:32:19;;;;;;;8.40;2.83;;;33.10;37.60;;;;;;5067973;28;20071;-77
2023/05/22 09:34:45;;;;;;;8.95;2.58;;;33.20;38.50;;;;;;5067632;28;20052;-76
2023/05/22 09:37:12;;;;;;;6.05;2.60;;;33.50;39.20;;;;;;5067979;28;20040;-76
2023/05/22 09:39:42;;;;;;;5.35;2.30;;;33.90;38.70;;;;;;5070333;28;20044;-76
2023/05/22 09:42:13;;;;;;;9.27;2.35;;;34.10;37.10;;;;;;5071936;28;20610;-76
2023/05/22 09:44:41;;;;;;;9.63;2.17;;;34.50;36.70;;;;;;5070280;28;20528;-76
2023/05/22 09:47:08;;;;;;;11.95;2.83;;;34.80;35.40;;;;;;5071634;28;20539;-77
2023/05/22 09:49:42;;;;;;;6.53;2.78;;;34.70;36.40;;;;;;5071447;28;20095;-76
2023/05/22 09:52:08;;;;;;;9.57;2.30;;;34.40;35.70;;;;;;5071511;28;20033;-77
2023/05/22 09:54:37;;;;;;;9.63;2.20;;;34.20;36.50;;;;;;5071428;28;20020;-76
2023/05/22 09:57:08;;;;;;;5.85;2.30;;;34.10;36.30;;;;;;5070963;28;20516;-76
2023/05/22 09:59:38;;;;;;;4.05;2.25;;;33.90;37.90;;;;;;5071087;28;20669;-76
2023/05/22 10:02:05;;;;;;;10.80;2.83;;;33.80;37.90;;;;;;5069429;28;20404;-75
2023/05/22 10:04:32;;;;;;;12.45;2.28;;;33.40;38.70;;;;;;5071009;28;20358;-75
2023/05/22 10:07:02;;;;;;;5.18;2.20;;;32.90;38.50;;;;;;5070587;28;20024;-75
2023/05/22 10:09:33;;;;;;;6.57;2.25;;;32.40;38.40;;;;;;5071173;28;20021;-75
2023/05/22 10:12:03;;;;;;;11.10;2.25;;;31.90;39.30;;;;;;5070453;28;20501;-75
2023/05/22 10:14:29;;;;;;;10.82;2.47;;;31.60;40.20;;;;;;5071001;28;20074;-74
2023/05/22 10:16:56;;;;;;;8.70;2.60;;;31.30;40.30;;;;;;5070538;28;20516;-78
2023/05/22 10:19:25;;;;;;;9.18;3.20;;;31.00;41.40;;;;;;5070835;28;20024;-77
2023/05/22 10:21:54;;;;;;;9.55;2.05;;;30.50;43.00;;;;;;5069406;28;20024;-77
2023/05/22 10:24:21;;;;;;;7.53;1.88;;;30.30;41.90;;;;;;5069347;28;20493;-78
2023/05/22 10:26:47;;;;;;;8.85;2.90;;;30.00;39.90;;;;;;5070123;28;20445;-78
2023/05/22 10:29:24;;;;;;;8.57;2.50;;;29.50;41.30;;;;;;5070781;28;20477;-75
2023/05/22 10:32:13;;;;;;;14.43;2.83;;;29.20;41.90;;;;;;5069466;28;20089;-76
2023/05/22 10:34:49;;;;;;;9.63;2.10;;;28.60;42.10;;;;;;5070702;28;20025;-75
2023/05/22 10:37:30;;;;;;;7.18;2.53;;;28.10;42.90;;;;;;5070563;28;20039;-75
2023/05/22 10:39:59;;;;;;;4.25;1.73;;;28.00;44.60;;;;;;5069133;28;20489;-75
2023/05/22 10:42:29;;;;;;;5.95;2.13;;;28.10;45.90;;;;;;5070487;28;20140;-75
2023/05/22 10:44:55;;;;;;;8.82;2.70;;;28.40;45.90;;;;;;5070210;28;20350;-75
2023/05/22 10:47:20;;;;;;;4.10;2.17;;;28.50;45.60;;;;;;5070397;28;20103;-75
2023/05/22 10:49:48;;;;;;;6.72;2.85;;;28.30;47.30;;;;;;5070195;28;20397;-75
2023/05/22 10:52:17;;;;;;;10.70;2.40;;;28.40;45.60;;;;;;5070444;28;20039;-74
2023/05/22 10:54:44;;;;;;;11.05;2.83;;;28.30;44.20;;;;;;5069795;28;20449;-75
2023/05/22 10:57:17;;;;;;;8.80;3.15;;;28.20;46.40;;;;;;5069881;28;20748;-75
2023/05/22 10:59:46;;;;;;;7.13;2.63;;;28.30;47.60;;;;;;5069804;28;20527;-74
2023/05/22 11:02:38;;;;;;;4.80;2.28;;;28.40;47.00;;;;;;5070260;28;20042;-75
2023/05/22 11:05:15;;;;;;;7.55;2.30;;;28.50;47.30;;;;;;5069579;28;20593;-73
2023/05/22 11:07:41;;;;;;;8.10;2.17;;;28.60;47.40;;;;;;5069954;28;20029;-75
2023/05/22 11:10:07;;;;;;;6.70;2.20;;;28.80;47.90;;;;;;5070004;28;20013;-74
2023/05/22 11:12:33;;;;;;;10.68;2.70;;;28.90;46.10;;;;;;5069316;28;20036;-75
2023/05/22 11:15:01;;;;;;;9.88;2.65;;;28.80;45.00;;;;;;5069841;28;20035;-75
2023/05/22 11:17:41;;;;;;;8.02;2.55;;;28.60;44.80;;;;;;5069718;28;20045;-75
2023/05/22 11:20:21;;;;;;;17.35;2.35;;;28.30;45.60;;;;;;5068518;28;20028;-75
2023/05/22 11:22:58;;;;;;;14.85;2.78;;;28.20;46.50;;;;;;5069721;28;20527;-76
2023/05/22 11:25:25;;;;;;;4.35;2.15;;;28.20;46.70;;;;;;5069758;28;20012;-75
2023/05/22 11:27:53;;;;;;;18.33;2.88;;;28.10;46.00;;;;;;5069472;28;20054;-76
2023/05/22 11:30:19;;;;;;;4.95;2.08;;;28.20;47.40;;;;;;5069958;28;20037;-75
2023/05/22 11:32:46;;;;;;;8.30;2.80;;;28.30;46.90;;;;;;5068193;28;20034;-76
2023/05/22 11:35:19;;;;;;;13.70;2.60;;;28.40;46.10;;;;;;5069317;28;20024;-75
2023/05/22 11:37:46;;;;;;;5.82;2.92;;;28.20;44.50;;;;;;5069699;28;20040;-75
2023/05/22 11:40:16;;;;;;;6.40;2.53;;;27.80;46.50;;;;;;5069251;28;20092;-75
2023/05/22 11:42:42;;;;;;;5.07;2.40;;;27.60;46.80;;;;;;5069527;28;20028;-75
2023/05/22 11:45:09;;;;;;;8.65;2.22;;;27.40;47.00;;;;;;5069114;28;20031;-75
2023/05/22 11:47:36;;;;;;;15.30;2.80;;;27.50;48.30;;;;;;5068896;28;20198;-75
2023/05/22 11:50:02;;;;;;;7.47;2.10;;;27.90;49.50;;;;;;5069026;28;20021;-75
2023/05/22 11:52:35;;;;;;;7.35;2.15;;;28.20;49.30;;;;;;5068796;28;20043;-75
2023/05/22 11:55:04;;;;;;;3.60;1.98;;;28.60;48.40;;;;;;5068851;28;20506;-76
2023/05/22 11:57:30;;;;;;;6.28;2.30;;;28.80;49.10;;;;;;5068483;28;20064;-75
2023/05/22 12:00:00;;;;;;;6.78;2.40;;;28.90;47.90;;;;;;5068996;28;20027;-75
2023/05/22 12:02:26;;;;;;;8.93;2.13;;;29.00;47.30;;;;;;5067842;28;20032;-76
2023/05/22 12:04:58;;;;;;;5.60;2.20;;;29.10;46.60;;;;;;5066703;28;20031;-76
2023/05/22 12:07:28;;;;;;;10.80;2.67;;;29.20;47.20;;;;;;5068841;28;20061;-76
2023/05/22 12:09:57;;;;;;;7.28;2.58;;;29.30;47.50;;;;;;5068588;28;20062;-75
2023/05/22 12:12:23;;;;;;;8.88;2.15;;;29.50;46.90;;;;;;5068680;28;20028;-76
2023/05/22 12:14:49;;;;;;;3.95;2.00;;;29.70;44.00;;;;;;5067226;28;20035;-77
2023/05/22 12:17:16;;;;;;;6.40;2.55;;;29.30;45.30;;;;;;5067363;28;20040;-77
2023/05/22 12:19:42;;;;;;;5.60;2.17;;;29.00;46.10;;;;;;5067021;28;20112;-77
2023/05/22 12:22:09;;;;;;;10.40;2.30;;;29.00;46.70;;;;;;5067147;28;20447;-76
2023/05/22 12:24:47;;;;;;;6.50;1.77;;;29.10;46.40;;;;;;5068330;28;20060;-76
2023/05/22 12:27:13;;;;;;;10.70;2.88;;;29.20;46.10;;;;;;5068393;28;20028;-76
2023/05/22 12:29:42;;;;;;;8.63;3.10;;;29.20;46.30;;;;;;5067399;28;20104;-76
2023/05/22 12:32:10;;;;;;;6.88;2.58;;;29.10;46.70;;;;;;5068587;28;20170;-76
2023/05/22 12:34:42;;;;;;;11.38;2.50;;;29.10;46.30;;;;;;5068283;28;20017;-77
2023/05/22 12:37:23;;;;;;;6.10;2.10;;;28.90;46.20;;;;;;5068345;28;20518;-77
2023/05/22 12:39:57;;;;;;;9.02;2.55;;;28.60;46.70;;;;;;5063294;28;20135;-77
2023/05/22 12:42:27;;;;;;;7.43;2.47;;;28.50;47.20;;;;;;5066044;28;20025;-77
2023/05/22 12:44:54;;;;;;;3.88;2.13;;;28.40;47.40;;;;;;5068262;28;20445;-77
2023/05/22 12:47:21;;;;;;;6.57;2.33;;;28.10;47.90;;;;;;5067887;28;20032;-77
2023/05/22 12:49:46;;;;;;;5.72;2.30;;;27.80;49.30;;;;;;5068253;28;20108;-77
2023/05/22 12:52:12;;;;;;;13.27;2.00;;;27.40;49.10;;;;;;5068380;28;20127;-77